createdAt,value
2017-12-21T00:00:27.658Z,6.32
2017-12-21T00:02:55.170Z,6.32
2017-12-21T00:05:22.681Z,6.32
2017-12-21T00:07:50.234Z,6.58
2017-12-21T00:10:17.739Z,6.39
2017-12-21T00:12:45.249Z,6.49
2017-12-21T00:15:13.114Z,6.59
2017-12-21T00:17:40.675Z,6.47
2017-12-21T00:20:08.233Z,6.56
2017-12-21T00:22:41.218Z,6.61
2017-12-21T00:25:08.730Z,6.82
2017-12-21T00:27:36.234Z,6.44
2017-12-21T00:30:03.778Z,6.59
2017-12-21T00:32:31.291Z,6.66
2017-12-21T00:34:58.799Z,6.64
2017-12-21T00:37:26.680Z,6.46
2017-12-21T00:39:54.180Z,6.43
2017-12-21T00:42:21.690Z,6.68
2017-12-21T00:44:49.250Z,6.71
2017-12-21T00:47:16.760Z,6.63
2017-12-21T00:49:45.730Z,6.67
2017-12-21T00:52:13.433Z,6.40
2017-12-21T00:54:40.953Z,6.60
2017-12-21T00:57:08.479Z,6.43
2017-12-21T00:59:36.039Z,6.75
2017-12-21T01:02:03.552Z,6.73
2017-12-21T01:04:31.065Z,6.91
2017-12-21T01:06:58.614Z,7.13
2017-12-21T01:09:26.168Z,6.82
2017-12-21T01:11:53.677Z,6.44
2017-12-21T01:14:21.378Z,6.64
2017-12-21T01:16:48.885Z,6.57
2017-12-21T01:19:16.434Z,6.56
2017-12-21T01:21:44.173Z,6.64
2017-12-21T01:24:11.676Z,6.78
2017-12-21T01:26:39.197Z,6.78
2017-12-21T01:29:06.759Z,6.98
2017-12-21T01:31:34.306Z,6.90
2017-12-21T01:34:01.826Z,6.79
2017-12-21T01:36:29.607Z,6.74
2017-12-21T01:38:57.114Z,6.75
2017-12-21T01:41:24.646Z,6.72
2017-12-21T01:43:52.545Z,6.61
2017-12-21T01:46:20.088Z,6.52
2017-12-21T01:48:47.628Z,6.50
2017-12-21T01:51:15.189Z,6.76
2017-12-21T01:53:42.697Z,6.72
2017-12-21T01:56:10.230Z,6.80
2017-12-21T01:58:37.790Z,6.70
2017-12-21T02:01:05.323Z,6.74
2017-12-21T02:03:32.834Z,6.40
2017-12-21T02:06:00.429Z,6.15
2017-12-21T02:08:27.937Z,6.33
2017-12-21T02:10:55.448Z,6.54
2017-12-21T02:13:23.108Z,6.51
2017-12-21T02:15:50.591Z,6.31
2017-12-21T02:18:18.134Z,6.38
2017-12-21T02:20:45.865Z,6.17
2017-12-21T02:23:13.373Z,6.11
2017-12-21T02:25:40.914Z,6.08
2017-12-21T02:28:08.557Z,6.25
2017-12-21T02:30:37.057Z,6.39
2017-12-21T02:33:04.565Z,6.01
2017-12-21T02:35:32.379Z,5.98
2017-12-21T02:37:59.882Z,5.85
2017-12-21T02:40:28.363Z,6.03
2017-12-21T02:42:55.988Z,6.01
2017-12-21T02:45:23.490Z,6.08
2017-12-21T02:47:51.003Z,6.08
2017-12-21T02:50:18.553Z,5.89
2017-12-21T02:52:46.093Z,6.16
2017-12-21T02:55:13.597Z,6.35
2017-12-21T02:57:41.150Z,6.56
2017-12-21T03:00:08.790Z,6.63
2017-12-21T03:02:36.367Z,6.49
2017-12-21T03:05:04.113Z,6.15
2017-12-21T03:07:31.617Z,6.45
2017-12-21T03:09:59.128Z,6.57
2017-12-21T03:12:26.687Z,6.43
2017-12-21T03:14:54.191Z,6.18
2017-12-21T03:17:21.806Z,6.22
2017-12-21T03:19:49.349Z,6.69
2017-12-21T03:22:16.856Z,6.38
2017-12-21T03:24:44.379Z,6.21
2017-12-21T03:27:12.069Z,6.05
2017-12-21T03:29:39.600Z,6.54
2017-12-21T03:32:07.108Z,6.10
2017-12-21T03:34:34.784Z,6.27
2017-12-21T03:37:02.290Z,6.21
2017-12-21T03:39:29.836Z,6.20
2017-12-21T03:41:57.703Z,6.29
2017-12-21T03:44:25.262Z,6.57
2017-12-21T03:46:52.765Z,6.49
2017-12-21T03:49:20.326Z,6.49
2017-12-21T03:51:47.857Z,6.09
2017-12-21T03:54:15.379Z,6.32
2017-12-21T03:56:43.160Z,6.30
2017-12-21T03:59:10.719Z,5.92
2017-12-21T04:01:38.225Z,6.16
2017-12-21T04:04:05.768Z,6.34
2017-12-21T04:06:33.274Z,6.14
2017-12-21T04:09:00.785Z,6.31
2017-12-21T04:11:28.490Z,6.81
2017-12-21T04:13:56.021Z,7.06
2017-12-21T04:16:23.536Z,7.09
2017-12-21T04:18:51.293Z,7.03
2017-12-21T04:21:18.801Z,7.05
2017-12-21T04:23:46.314Z,6.52
2017-12-21T04:26:13.878Z,6.47
2017-12-21T04:28:41.427Z,6.84
2017-12-21T04:31:08.959Z,6.75
2017-12-21T04:33:36.497Z,6.69
2017-12-21T04:36:04.025Z,6.60
2017-12-21T04:38:31.530Z,6.59
2017-12-21T04:40:59.192Z,6.56
2017-12-21T04:43:26.698Z,7.06
2017-12-21T04:45:54.238Z,6.80
2017-12-21T04:48:22.172Z,6.97
2017-12-21T04:50:49.693Z,6.89
2017-12-21T04:53:17.223Z,7.03
2017-12-21T04:55:44.987Z,7.16
2017-12-21T04:58:12.506Z,6.89
2017-12-21T05:00:40.018Z,6.59
2017-12-21T05:03:07.557Z,6.83
2017-12-21T05:05:35.070Z,6.91
2017-12-21T05:08:02.582Z,6.88
2017-12-21T05:10:30.344Z,6.83
2017-12-21T05:12:57.901Z,6.67
2017-12-21T05:15:25.454Z,6.72
2017-12-21T05:17:53.017Z,7.14
2017-12-21T05:20:20.526Z,6.80
2017-12-21T05:22:48.035Z,6.58
2017-12-21T05:25:15.589Z,6.80
2017-12-21T05:27:43.124Z,6.69
2017-12-21T05:30:10.648Z,6.76
2017-12-21T05:32:38.313Z,6.94
2017-12-21T05:35:05.832Z,7.00
2017-12-21T05:37:33.389Z,6.83
2017-12-21T05:40:00.947Z,6.80
2017-12-21T05:42:28.510Z,6.66
2017-12-21T05:44:56.018Z,6.72
2017-12-21T05:47:23.626Z,6.74
2017-12-21T05:49:51.158Z,6.96
2017-12-21T05:52:18.669Z,7.08
2017-12-21T05:54:46.249Z,6.78
2017-12-21T05:57:13.778Z,6.75
2017-12-21T05:59:41.317Z,6.60
2017-12-21T06:02:09.158Z,6.53
2017-12-21T06:04:37.481Z,6.88
2017-12-21T06:07:05.019Z,6.80
2017-12-21T06:09:32.577Z,6.87
2017-12-21T06:12:00.650Z,6.40
2017-12-21T06:14:28.164Z,6.58
2017-12-21T06:16:55.734Z,7.03
2017-12-21T06:19:23.247Z,6.70
2017-12-21T06:21:50.764Z,6.51
2017-12-21T06:24:18.458Z,6.59
2017-12-21T06:26:46.004Z,6.97
2017-12-21T06:29:13.564Z,6.66
2017-12-21T06:31:41.145Z,6.77
2017-12-21T06:34:08.659Z,6.74
2017-12-21T06:36:36.169Z,6.70
2017-12-21T06:39:04.720Z,6.90
2017-12-21T06:41:32.240Z,6.55
2017-12-21T06:43:59.750Z,6.59
2017-12-21T06:46:27.501Z,6.70
2017-12-21T06:48:55.064Z,6.61
2017-12-21T06:51:22.618Z,6.69
2017-12-21T06:53:50.598Z,6.51
2017-12-21T06:56:18.142Z,6.89
2017-12-21T06:58:45.662Z,6.96
2017-12-21T07:01:13.466Z,6.79
2017-12-21T07:03:40.976Z,6.92
2017-12-21T07:06:08.503Z,7.26
2017-12-21T07:08:36.125Z,7.21
2017-12-21T07:11:03.660Z,7.13
2017-12-21T07:13:31.172Z,7.04
2017-12-21T07:15:58.718Z,7.40
2017-12-21T07:18:26.224Z,7.38
2017-12-21T07:20:53.729Z,7.45
2017-12-21T07:23:21.397Z,7.51
2017-12-21T07:25:48.905Z,7.18
2017-12-21T07:28:16.422Z,7.29
2017-12-21T07:30:44.380Z,7.46
2017-12-21T07:33:11.890Z,7.60
2017-12-21T07:35:39.411Z,7.14
2017-12-21T07:38:07.162Z,7.30
2017-12-21T07:40:34.665Z,7.40
2017-12-21T07:43:02.185Z,7.01
2017-12-21T07:45:29.754Z,7.34
2017-12-21T07:47:57.280Z,7.13
2017-12-21T07:50:24.785Z,7.37
2017-12-21T07:52:52.323Z,7.38
2017-12-21T07:55:19.871Z,7.21
2017-12-21T07:57:47.377Z,7.19
2017-12-21T08:00:15.296Z,7.22
2017-12-21T08:02:42.857Z,7.18
2017-12-21T08:05:10.415Z,7.40
2017-12-21T08:07:38.280Z,7.00
2017-12-21T08:10:06.761Z,6.90
2017-12-21T08:12:34.267Z,6.72
2017-12-21T08:15:01.960Z,7.11
2017-12-21T08:17:29.848Z,7.03
2017-12-21T08:19:57.358Z,7.31
2017-12-21T08:22:25.087Z,7.28
2017-12-21T08:24:52.627Z,6.93
2017-12-21T08:27:21.209Z,7.20
2017-12-21T08:29:48.961Z,7.50
2017-12-21T08:32:16.469Z,7.25
2017-12-21T08:34:44.005Z,7.34
2017-12-21T08:37:11.655Z,7.50
2017-12-21T08:39:39.161Z,7.23
2017-12-21T08:42:06.657Z,7.20
2017-12-21T08:44:34.213Z,7.31
2017-12-21T08:47:01.722Z,7.62
2017-12-21T08:49:29.234Z,7.88
2017-12-21T08:51:56.902Z,7.51
2017-12-21T08:54:24.426Z,7.51
2017-12-21T08:56:51.933Z,7.36
2017-12-21T08:59:19.681Z,7.36
2017-12-21T09:01:47.186Z,7.51
2017-12-21T09:04:14.697Z,7.63
2017-12-21T09:06:42.283Z,7.57
2017-12-21T09:09:09.820Z,7.40
2017-12-21T09:11:37.330Z,7.61
2017-12-21T09:14:04.882Z,7.54
2017-12-21T09:16:32.392Z,7.92
2017-12-21T09:18:59.889Z,8.17
2017-12-21T09:21:27.453Z,7.90
2017-12-21T09:23:54.971Z,7.81
2017-12-21T09:26:22.528Z,8.14
2017-12-21T09:28:50.076Z,8.42
2017-12-21T09:31:17.582Z,8.32
2017-12-21T09:33:45.086Z,8.03
2017-12-21T09:36:12.649Z,8.06
2017-12-21T09:38:40.150Z,7.89
2017-12-21T09:41:07.659Z,8.07
2017-12-21T09:43:35.234Z,7.85
2017-12-21T09:46:02.733Z,8.21
2017-12-21T09:48:30.250Z,8.22
2017-12-21T09:50:58.116Z,8.09
2017-12-21T09:53:25.730Z,8.01
2017-12-21T09:55:54.364Z,8.10
2017-12-21T09:58:22.331Z,8.51
2017-12-21T10:00:49.833Z,8.46
2017-12-21T10:03:17.756Z,8.69
2017-12-21T10:05:45.518Z,8.33
2017-12-21T10:08:14.615Z,8.36
2017-12-21T10:10:42.173Z,8.54
2017-12-21T10:13:10.650Z,9.03
2017-12-21T10:15:38.145Z,8.84
2017-12-21T10:18:06.509Z,8.59
2017-12-21T10:20:34.459Z,8.80
2017-12-21T10:23:02.425Z,8.88
2017-12-21T10:25:29.929Z,8.97
2017-12-21T10:27:57.990Z,9.05
2017-12-21T10:30:25.525Z,9.20
2017-12-21T10:32:54.610Z,8.75
2017-12-21T10:35:22.372Z,8.90
2017-12-21T10:37:50.668Z,8.66
2017-12-21T10:40:18.185Z,8.80
2017-12-21T10:42:45.869Z,8.67
2017-12-21T10:45:13.369Z,8.69
2017-12-21T10:47:40.869Z,8.93
2017-12-21T10:50:08.549Z,8.76
2017-12-21T10:52:36.105Z,9.12
2017-12-21T10:55:03.666Z,9.28
2017-12-21T10:57:31.394Z,9.44
2017-12-21T10:59:58.889Z,9.49
2017-12-21T11:02:26.400Z,9.44
2017-12-21T11:04:54.926Z,8.96
2017-12-21T11:07:22.484Z,9.04
2017-12-21T11:09:49.982Z,9.25
2017-12-21T11:12:17.706Z,9.16
2017-12-21T11:14:45.205Z,9.64
2017-12-21T11:17:12.700Z,9.91
2017-12-21T11:19:40.263Z,9.83
2017-12-21T11:22:07.765Z,9.60
2017-12-21T11:24:36.216Z,9.79
2017-12-21T11:27:03.776Z,9.51
2017-12-21T11:29:32.249Z,9.62
2017-12-21T11:32:00.430Z,9.58
2017-12-21T11:34:28.100Z,9.53
2017-12-21T11:36:55.669Z,9.58
2017-12-21T11:39:23.165Z,9.61
2017-12-21T11:41:51.288Z,9.27
2017-12-21T11:44:18.827Z,9.56
2017-12-21T11:46:46.809Z,9.49
2017-12-21T11:49:15.375Z,9.55
2017-12-21T11:51:43.904Z,9.64
2017-12-21T11:54:11.424Z,9.58
2017-12-21T11:56:39.002Z,9.74
2017-12-21T11:59:06.496Z,9.66
2017-12-21T12:01:34.905Z,9.79
2017-12-21T12:04:03.308Z,9.78
2017-12-21T12:06:31.718Z,9.82
2017-12-21T12:08:59.226Z,9.86
2017-12-21T12:11:28.761Z,9.60
2017-12-21T12:13:56.720Z,9.85
2017-12-21T12:16:25.057Z,9.59
2017-12-21T12:18:54.395Z,9.87
2017-12-21T12:21:21.930Z,9.68
2017-12-21T12:23:49.634Z,9.91
2017-12-21T12:26:17.550Z,9.79
2017-12-21T12:28:46.007Z,9.74
2017-12-21T12:31:13.550Z,9.68
2017-12-21T12:33:42.106Z,9.81
2017-12-21T12:36:09.724Z,9.87
2017-12-21T12:38:38.436Z,9.70
2017-12-21T12:41:06.000Z,9.90
2017-12-21T12:43:34.394Z,10.04
2017-12-21T12:46:02.103Z,10.20
2017-12-21T12:48:29.925Z,10.37
2017-12-21T12:50:57.429Z,10.47
2017-12-21T12:53:25.036Z,10.44
2017-12-21T12:55:52.634Z,10.14
2017-12-21T12:58:21.179Z,10.23
2017-12-21T13:00:48.743Z,10.19
2017-12-21T13:03:16.604Z,10.15
2017-12-21T13:05:44.164Z,10.18
2017-12-21T13:08:11.927Z,9.97
2017-12-21T13:10:39.769Z,10.08
2017-12-21T13:13:07.764Z,10.09
2017-12-21T13:15:35.494Z,10.19
2017-12-21T13:18:03.699Z,10.09
2017-12-21T13:20:31.260Z,9.92
2017-12-21T13:22:58.917Z,9.85
2017-12-21T13:25:26.916Z,9.93
2017-12-21T13:27:54.653Z,9.88
2017-12-21T13:30:22.215Z,9.44
2017-12-21T13:32:50.082Z,9.51
2017-12-21T13:35:17.639Z,9.75
2017-12-21T13:37:45.183Z,9.76
2017-12-21T13:40:13.041Z,9.85
2017-12-21T13:42:40.623Z,9.83
2017-12-21T13:45:08.591Z,9.59
2017-12-21T13:47:36.222Z,9.75
2017-12-21T13:50:04.820Z,9.75
2017-12-21T13:52:32.395Z,9.76
2017-12-21T13:55:00.987Z,9.76
2017-12-21T13:57:28.844Z,9.45
2017-12-21T13:59:56.570Z,9.47
2017-12-21T14:02:24.478Z,9.73
2017-12-21T14:04:52.240Z,9.65
2017-12-21T14:07:19.746Z,9.54
2017-12-21T14:09:48.557Z,9.43
2017-12-21T14:12:16.058Z,9.67
2017-12-21T14:14:44.665Z,9.35
2017-12-21T14:17:12.293Z,9.29
2017-12-21T14:19:40.052Z,9.36
2017-12-21T14:22:07.816Z,9.67
2017-12-21T14:24:35.887Z,9.70
2017-12-21T14:27:03.399Z,9.80
2017-12-21T14:29:31.234Z,9.76
2017-12-21T14:31:59.180Z,9.62
2017-12-21T14:34:27.000Z,9.61
2017-12-21T14:36:55.525Z,9.52
2017-12-21T14:39:24.415Z,9.68
2017-12-21T14:41:52.590Z,9.80
2017-12-21T14:44:20.369Z,9.82
2017-12-21T14:46:48.937Z,9.85
2017-12-21T14:49:17.578Z,9.78
2017-12-21T14:51:45.343Z,9.56
2017-12-21T14:54:13.269Z,9.69
2017-12-21T14:56:41.888Z,9.86
2017-12-21T14:59:10.015Z,9.86
2017-12-21T15:01:37.847Z,9.87
2017-12-21T15:04:05.377Z,9.68
2017-12-21T15:06:33.608Z,9.80
2017-12-21T15:09:01.603Z,9.79
2017-12-21T15:11:29.855Z,9.97
2017-12-21T15:13:58.949Z,9.88
2017-12-21T15:16:26.768Z,9.70
2017-12-21T15:18:54.579Z,9.87
2017-12-21T15:21:22.125Z,9.73
2017-12-21T15:23:51.011Z,9.77
2017-12-21T15:26:18.552Z,9.81
2017-12-21T15:28:46.270Z,9.59
2017-12-21T15:31:15.110Z,9.77
2017-12-21T15:33:43.044Z,9.64
2017-12-21T15:36:10.768Z,9.65
2017-12-21T15:38:39.557Z,9.20
2017-12-21T15:41:08.345Z,9.44
2017-12-21T15:43:36.419Z,9.37
2017-12-21T15:46:04.286Z,9.23
2017-12-21T15:48:31.893Z,9.48
2017-12-21T15:51:00.648Z,9.73
2017-12-21T15:53:28.606Z,9.74
2017-12-21T15:55:57.288Z,9.59
2017-12-21T15:58:25.050Z,9.75
2017-12-21T16:00:53.951Z,9.64
2017-12-21T16:03:21.633Z,9.73
2017-12-21T16:05:49.532Z,9.85
2017-12-21T16:08:17.231Z,9.71
2017-12-21T16:10:45.404Z,9.72
2017-12-21T16:13:13.168Z,9.72
2017-12-21T16:15:41.973Z,9.34
2017-12-21T16:18:10.131Z,9.56
2017-12-21T16:20:39.035Z,9.71
2017-12-21T16:23:06.803Z,9.75
2017-12-21T16:25:34.445Z,9.83
2017-12-21T16:28:02.097Z,9.80
2017-12-21T16:30:29.673Z,9.59
2017-12-21T16:32:57.949Z,9.64
2017-12-21T16:35:25.605Z,9.83
2017-12-21T16:37:53.794Z,9.66
2017-12-21T16:40:21.611Z,9.52
2017-12-21T16:42:49.408Z,9.64
2017-12-21T16:45:18.546Z,9.72
2017-12-21T16:47:46.267Z,9.54
2017-12-21T16:50:14.906Z,9.76
2017-12-21T16:52:42.702Z,9.87
2017-12-21T16:55:10.553Z,9.63
2017-12-21T16:57:38.962Z,9.83
2017-12-21T17:00:06.816Z,9.63
2017-12-21T17:02:34.389Z,9.71
2017-12-21T17:05:02.867Z,9.79
2017-12-21T17:07:31.383Z,9.79
2017-12-21T17:10:01.099Z,9.93
2017-12-21T17:12:28.637Z,9.88
2017-12-21T17:14:56.995Z,9.96
2017-12-21T17:17:24.579Z,9.92
2017-12-21T17:19:52.162Z,9.90
2017-12-21T17:22:20.185Z,10.02
2017-12-21T17:24:47.735Z,9.99
2017-12-21T17:27:16.021Z,10.07
2017-12-21T17:29:44.837Z,9.91
2017-12-21T17:32:13.502Z,10.03
2017-12-21T17:34:41.033Z,9.98
2017-12-21T17:37:09.130Z,9.73
2017-12-21T17:39:36.701Z,9.87
2017-12-21T17:42:04.344Z,9.89
2017-12-21T17:44:32.414Z,9.97
2017-12-21T17:47:00.076Z,9.69
2017-12-21T17:49:27.642Z,9.84
2017-12-21T17:51:55.397Z,9.78
2017-12-21T17:54:23.167Z,9.83
2017-12-21T17:56:50.783Z,9.97
2017-12-21T17:59:18.802Z,9.96
2017-12-21T18:01:46.298Z,9.70
2017-12-21T18:04:14.326Z,9.78
2017-12-21T18:06:42.260Z,9.79
2017-12-21T18:09:10.465Z,9.75
2017-12-21T18:11:38.025Z,9.76
2017-12-21T18:14:05.777Z,9.79
2017-12-21T18:16:33.540Z,9.81
2017-12-21T18:19:01.204Z,9.46
2017-12-21T18:21:29.507Z,9.73
2017-12-21T18:23:57.049Z,9.53
2017-12-21T18:26:24.608Z,9.91
2017-12-21T18:28:52.517Z,9.89
2017-12-21T18:31:20.052Z,9.78
2017-12-21T18:33:48.143Z,9.66
2017-12-21T18:36:16.893Z,9.67
2017-12-21T18:38:44.760Z,9.76
2017-12-21T18:41:12.300Z,9.61
2017-12-21T18:43:40.172Z,9.62
2017-12-21T18:46:07.674Z,9.52
2017-12-21T18:48:35.610Z,9.72
2017-12-21T18:51:03.476Z,9.63
2017-12-21T18:53:31.044Z,9.75
2017-12-21T18:55:58.568Z,9.78
2017-12-21T18:58:26.329Z,9.55
2017-12-21T19:00:53.853Z,9.96
2017-12-21T19:03:21.682Z,9.85
2017-12-21T19:05:49.543Z,9.85
2017-12-21T19:08:17.106Z,10.10
2017-12-21T19:10:45.076Z,9.92
2017-12-21T19:13:12.839Z,9.83
2017-12-21T19:15:40.443Z,10.04
2017-12-21T19:18:08.113Z,10.03
2017-12-21T19:20:35.723Z,9.97
2017-12-21T19:23:03.454Z,9.94
2017-12-21T19:25:30.978Z,9.97
2017-12-21T19:27:59.118Z,9.86
2017-12-21T19:30:26.985Z,9.86
2017-12-21T19:32:54.653Z,9.91
2017-12-21T19:35:22.716Z,9.74
2017-12-21T19:37:50.479Z,9.87
2017-12-21T19:40:19.072Z,9.81
2017-12-21T19:42:47.087Z,9.91
2017-12-21T19:45:15.001Z,10.04
2017-12-21T19:47:42.869Z,9.61
2017-12-21T19:50:10.627Z,9.56
2017-12-21T19:52:39.741Z,9.54
2017-12-21T19:55:07.343Z,9.97
2017-12-21T19:57:35.441Z,10.08
2017-12-21T20:00:04.144Z,9.98
2017-12-21T20:02:31.910Z,9.87
2017-12-21T20:04:59.576Z,9.83
2017-12-21T20:07:27.334Z,9.76
2017-12-21T20:09:55.354Z,9.54
2017-12-21T20:12:22.983Z,9.13
2017-12-21T20:14:50.626Z,9.45
2017-12-21T20:17:18.492Z,9.27
2017-12-21T20:19:46.322Z,9.34
2017-12-21T20:22:13.870Z,9.36
2017-12-21T20:24:41.598Z,9.11
2017-12-21T20:27:09.649Z,9.38
2017-12-21T20:29:37.230Z,9.38
2017-12-21T20:32:05.075Z,9.32
2017-12-21T20:34:33.267Z,9.62
2017-12-21T20:37:00.932Z,9.58
2017-12-21T20:39:28.624Z,9.44
2017-12-21T20:41:56.542Z,9.65
2017-12-21T20:44:24.324Z,9.09
2017-12-21T20:46:52.683Z,9.36
2017-12-21T20:49:20.447Z,9.33
2017-12-21T20:51:48.426Z,9.50
2017-12-21T20:54:16.521Z,9.73
2017-12-21T20:56:44.347Z,9.64
2017-12-21T20:59:12.138Z,9.37
2017-12-21T21:01:39.883Z,9.43
2017-12-21T21:04:07.763Z,9.64
2017-12-21T21:06:35.317Z,9.16
2017-12-21T21:09:03.175Z,9.34
2017-12-21T21:11:30.978Z,9.31
2017-12-21T21:13:58.701Z,9.49
2017-12-21T21:16:26.323Z,9.50
2017-12-21T21:18:55.699Z,9.41
2017-12-21T21:21:26.823Z,9.56
2017-12-21T21:23:57.671Z,9.61
2017-12-21T21:26:25.406Z,9.66
2017-12-21T21:28:53.377Z,9.61
2017-12-21T21:31:21.551Z,9.56
2017-12-21T21:33:50.131Z,9.52
2017-12-21T21:36:18.822Z,9.75
2017-12-21T21:38:46.705Z,9.85
2017-12-21T21:41:14.256Z,9.83
2017-12-21T21:43:42.127Z,9.72
2017-12-21T21:46:09.770Z,9.90
2017-12-21T21:48:39.099Z,9.98
2017-12-21T21:51:06.960Z,10.03
2017-12-21T21:53:34.907Z,9.99
2017-12-21T21:56:02.451Z,9.87
2017-12-21T21:58:29.969Z,9.93
2017-12-21T22:00:57.890Z,10.06
2017-12-21T22:03:25.517Z,10.11
2017-12-21T22:05:53.108Z,10.16
2017-12-21T22:08:20.788Z,10.06
2017-12-21T22:10:48.338Z,9.89
2017-12-21T22:13:15.929Z,10.01
2017-12-21T22:15:43.652Z,9.88
2017-12-21T22:18:12.546Z,9.86
2017-12-21T22:20:40.411Z,9.87
2017-12-21T22:23:08.203Z,9.81
2017-12-21T22:25:35.940Z,9.78
2017-12-21T22:28:03.481Z,9.72
2017-12-21T22:30:31.393Z,9.56
2017-12-21T22:32:58.924Z,9.28
2017-12-21T22:35:26.563Z,9.32
2017-12-21T22:37:54.581Z,9.60
2017-12-21T22:40:22.360Z,9.35
2017-12-21T22:42:49.877Z,9.37
2017-12-21T22:45:17.620Z,9.44
2017-12-21T22:47:45.181Z,9.39
2017-12-21T22:50:12.685Z,9.17
2017-12-21T22:52:40.225Z,8.89
2017-12-21T22:55:07.726Z,8.95
2017-12-21T22:57:35.567Z,8.74
2017-12-21T23:00:04.026Z,8.96
2017-12-21T23:02:31.530Z,9.08
2017-12-21T23:04:59.046Z,8.99
2017-12-21T23:07:27.027Z,8.75
2017-12-21T23:09:54.669Z,9.19
2017-12-21T23:12:22.175Z,9.19
2017-12-21T23:14:49.707Z,9.42
2017-12-21T23:17:17.242Z,9.40
2017-12-21T23:19:44.749Z,9.03
2017-12-21T23:22:12.301Z,9.14
2017-12-21T23:24:39.816Z,9.45
2017-12-21T23:27:07.376Z,9.32
2017-12-21T23:29:34.951Z,9.30
2017-12-21T23:32:02.493Z,9.49
2017-12-21T23:34:29.994Z,9.42
2017-12-21T23:36:57.522Z,9.21
2017-12-21T23:39:25.478Z,9.45
2017-12-21T23:41:52.978Z,9.52
2017-12-21T23:44:20.675Z,9.34
2017-12-21T23:46:48.209Z,9.36
2017-12-21T23:49:15.727Z,9.49
2017-12-21T23:51:43.478Z,9.52
2017-12-21T23:54:10.978Z,9.49
2017-12-21T23:56:38.494Z,9.45
2017-12-21T23:59:06.240Z,9.68
